Time;durP1;ratioP1;P1;durP2;ratioP2;P2;SDS_P1;SDS_P2;PMS_P1;PMS_P2;Temp;Humidity;BMP_temperature;BMP_pressure;BME280_temperature;BME280_humidity;BME280_pressure;Samples;Min_cycle;Max_cycle;Signal;HPM_P1;HPM_P2
2023/07/27 11:14:40;;;;;;;0.20;0.20;;;;;;;22.85;59.39;99480.47;4629011;27;20223;-65
2023/07/27 11:16:51;;;;;;;0.10;0.10;;;;;;;22.84;59.63;99484.56;4620365;27;20135;-66
2023/07/27 11:19:03;;;;;;;0.10;0.10;;;;;;;22.87;59.68;99477.97;4635539;27;20035;-66
2023/07/27 11:21:13;;;;;;;0.10;0.10;;;;;;;22.85;59.95;99468.97;4605171;27;20040;-66
2023/07/27 11:23:24;;;;;;;0.10;0.10;;;;;;;22.90;59.51;99480.03;4596149;27;20035;-66
2023/07/27 11:25:35;;;;;;;0.17;0.10;;;;;;;22.90;59.12;99482.91;4612587;27;20108;-66
2023/07/27 11:27:49;;;;;;;0.10;0.10;;;;;;;22.87;59.26;99477.97;4594497;27;20035;-66
2023/07/27 11:30:00;;;;;;;0.55;0.10;;;;;;;22.85;59.08;99468.97;4601884;27;20039;-66
2023/07/27 11:32:10;;;;;;;0.25;0.10;;;;;;;22.90;59.17;99477.16;4595227;27;20020;-66
2023/07/27 11:34:22;;;;;;;0.00;0.00;;;;;;;22.90;58.96;99474.28;4594922;27;20040;-66
2023/07/27 11:36:33;;;;;;;0.10;0.10;;;;;;;;;;4602720;27;20039;-66
2023/07/27 11:38:43;;;;;;;0.10;0.10;;;;;;;22.88;59.63;99476.78;4596195;27;20043;-66
2023/07/27 11:40:57;;;;;;;0.00;0.00;;;;;;;22.91;59.37;99484.59;4595721;27;20229;-66
2023/07/27 11:43:07;;;;;;;0.10;0.10;;;;;;;22.91;59.07;99478.81;4593872;27;20031;-66
2023/07/27 11:45:18;;;;;;;0.17;0.17;;;;;;;22.91;59.11;99479.63;4595921;27;20024;-66
2023/07/27 11:47:37;;;;;;;0.10;0.10;;;;;;;22.91;59.39;99470.19;4594629;27;20032;-66
2023/07/27 11:49:50;;;;;;;0.20;0.10;;;;;;;22.89;59.88;99469.78;4595654;27;20093;-66
2023/07/27 11:52:05;;;;;;;0.10;0.10;;;;;;;22.90;59.97;99459.91;4594391;27;20921;-66
2023/07/27 11:54:27;;;;;;;0.20;0.20;;;;;;;22.89;60.09;99455.38;4595618;27;20087;-66
2023/07/27 11:56:37;;;;;;;0.20;0.10;;;;;;;22.90;59.80;99465.66;4595876;27;20093;-66
2023/07/27 11:58:49;;;;;;;0.10;0.10;;;;;;;22.91;59.97;99461.56;4594400;27;20039;-66
2023/07/27 12:01:00;;;;;;;0.00;0.00;;;;;;;22.90;59.74;99451.25;4593175;27;20175;-67
2023/07/27 12:03:11;;;;;;;0.10;0.10;;;;;;;22.87;60.03;99455.81;4598621;27;20035;-66
2023/07/27 12:05:22;;;;;;;0.10;0.10;;;;;;;22.92;60.08;99468.94;4593801;27;20088;-66
2023/07/27 12:07:35;;;;;;;0.10;0.10;;;;;;;22.91;59.94;99461.56;4593857;27;20626;-66
2023/07/27 12:09:46;;;;;;;0.10;0.10;;;;;;;22.90;60.23;99460.72;4595083;27;20622;-66
2023/07/27 12:11:57;;;;;;;0.70;0.10;;;;;;;22.88;59.88;99457.44;4597526;27;20027;-66
2023/07/27 12:14:09;;;;;;;0.10;0.10;;;;;;;22.91;60.12;99462.38;4591796;27;20351;-66
2023/07/27 12:16:20;;;;;;;0.10;0.10;;;;;;;22.87;60.21;99457.84;4593781;27;21122;-66
2023/07/27 12:18:30;;;;;;;0.00;0.00;;;;;;;22.91;59.96;99461.56;4593339;27;20157;-66
2023/07/27 12:20:41;;;;;;;0.10;0.10;;;;;;;22.90;60.45;99459.91;4593902;27;20036;-66
2023/07/27 12:22:52;;;;;;;0.03;0.03;;;;;;;22.87;60.32;99449.22;4592958;27;20036;-66
2023/07/27 12:25:03;;;;;;;0.10;0.10;;;;;;;22.88;60.62;99457.44;4586821;27;20055;-66
2023/07/27 12:27:13;;;;;;;0.17;0.10;;;;;;;22.90;60.69;99452.09;4579597;27;20163;-66
2023/07/27 12:29:24;;;;;;;0.30;0.10;;;;;;;22.90;60.97;99452.09;4583848;27;20043;-67
2023/07/27 12:31:35;;;;;;;0.10;0.10;;;;;;;;;;4581889;27;20035;-67
2023/07/27 12:33:45;;;;;;;0.10;0.10;;;;;;;22.85;61.13;99441.00;4581891;27;20052;-66
2023/07/27 12:35:55;;;;;;;0.10;0.10;;;;;;;22.84;61.39;99442.25;4580423;27;20088;-66
2023/07/27 12:38:06;;;;;;;0.00;0.00;;;;;;;22.87;61.57;99444.28;4579552;27;20095;-66
2023/07/27 12:40:16;;;;;;;0.10;0.10;;;;;;;22.85;61.41;99443.06;4579710;27;20598;-66
2023/07/27 12:42:27;;;;;;;0.10;0.10;;;;;;;22.86;61.64;99441.81;4581722;27;20032;-66
2023/07/27 12:44:37;;;;;;;0.20;0.20;;;;;;;;;;4580434;27;20043;-67
2023/07/27 12:46:47;;;;;;;0.10;0.10;;;;;;;22.91;61.99;99445.09;4582002;27;20134;-66
2023/07/27 12:48:58;;;;;;;0.10;0.10;;;;;;;22.85;61.71;99438.13;4580662;27;20920;-66
2023/07/27 12:51:08;;;;;;;0.10;0.10;;;;;;;22.90;61.77;99436.88;4579621;27;20064;-66
2023/07/27 12:53:19;;;;;;;0.10;0.10;;;;;;;22.93;62.10;99447.59;4588556;27;20054;-66
2023/07/27 12:55:29;;;;;;;0.55;0.10;;;;;;;22.91;62.23;99441.41;4580390;27;20467;-66
2023/07/27 12:57:40;;;;;;;0.10;0.10;;;;;;;22.90;62.23;99440.59;4579812;27;20035;-66
2023/07/27 12:59:50;;;;;;;0.10;0.10;;;;;;;22.92;62.64;99441.00;4579040;27;20106;-66
2023/07/27 13:02:01;;;;;;;0.10;0.10;;;;;;;22.91;62.63;99444.28;4581462;27;20141;-66
2023/07/27 13:04:11;;;;;;;0.10;0.10;;;;;;;22.93;62.31;99448.41;4580168;27;20032;-66
2023/07/27 13:06:21;;;;;;;0.57;0.20;;;;;;;22.85;62.37;99432.34;4580806;27;20036;-66
2023/07/27 13:08:32;;;;;;;0.10;0.10;;;;;;;22.92;62.56;99428.66;4581065;27;20039;-66
2023/07/27 13:10:42;;;;;;;0.10;0.10;;;;;;;22.90;62.40;99431.97;4579236;27;20796;-76
2023/07/27 13:12:53;;;;;;;0.15;0.15;;;;;;;22.91;62.26;99432.78;4580920;27;20046;-66
2023/07/27 13:15:04;;;;;;;0.13;0.13;;;;;;;22.92;62.52;99428.66;4589674;27;20104;-66
2023/07/27 13:17:14;;;;;;;0.10;0.10;;;;;;;22.92;62.12;99429.50;4581282;27;20028;-65
2023/07/27 13:19:25;;;;;;;0.15;0.10;;;;;;;22.91;62.31;99427.03;4580451;27;20843;-64
2023/07/27 13:21:35;;;;;;;0.10;0.10;;;;;;;22.90;62.24;99425.38;4581556;27;20032;-65
2023/07/27 13:23:46;;;;;;;0.10;0.10;;;;;;;22.89;62.78;99417.97;4580297;27;20135;-65
2023/07/27 13:25:56;;;;;;;0.10;0.10;;;;;;;22.88;62.92;99420.03;4579386;27;20329;-65
2023/07/27 13:28:07;;;;;;;0.10;0.10;;;;;;;22.92;62.88;99423.75;4579228;27;20039;-64
2023/07/27 13:30:17;;;;;;;0.10;0.10;;;;;;;22.91;62.42;99422.06;4580454;27;20078;-65
2023/07/27 13:32:28;;;;;;;0.10;0.10;;;;;;;22.89;62.60;99412.22;4582178;27;20073;-66
2023/07/27 13:34:38;;;;;;;0.10;0.10;;;;;;;22.91;62.56;99427.84;4580439;27;20048;-68
2023/07/27 13:36:49;;;;;;;0.20;0.20;;;;;;;22.90;63.16;99422.50;4578624;27;20047;-70
2023/07/27 13:38:59;;;;;;;0.10;0.10;;;;;;;22.93;63.26;99430.34;4581344;27;20058;-69
2023/07/27 13:41:10;;;;;;;0.20;0.20;;;;;;;22.88;63.09;99417.16;4584905;22;20699;-69
2023/07/27 13:43:21;;;;;;;0.10;0.10;;;;;;;22.86;63.09;99422.50;4545367;27;20488;-69
2023/07/27 13:45:31;;;;;;;0.10;0.10;;;;;;;22.91;63.30;99433.59;4565227;27;20029;-69
2023/07/27 13:47:41;;;;;;;0.13;0.13;;;;;;;22.97;63.46;99442.66;4561548;28;20691;-70
2023/07/27 13:49:52;;;;;;;0.20;0.20;;;;;;;22.95;63.65;99427.84;4560394;28;20024;-69
2023/07/27 13:52:02;;;;;;;0.20;0.20;;;;;;;22.96;63.15;99435.25;4546689;28;20691;-68
2023/07/27 13:54:13;;;;;;;0.20;0.20;;;;;;;22.97;63.20;99439.78;4543085;28;20049;-69
2023/07/27 13:56:23;;;;;;;0.20;0.20;;;;;;;22.98;63.43;99427.00;4529824;28;20060;-69
2023/07/27 13:58:34;;;;;;;0.35;0.10;;;;;;;22.98;63.59;99435.66;4563857;28;20041;-68
2023/07/27 14:00:45;;;;;;;0.20;0.20;;;;;;;22.99;63.25;99434.44;4563981;28;20036;-69
2023/07/27 14:02:56;;;;;;;0.17;0.17;;;;;;;22.99;63.01;99434.44;4549067;28;20601;-68
2023/07/27 14:05:07;;;;;;;0.10;0.10;;;;;;;22.99;63.42;99431.56;4528321;28;20539;-67
2023/07/27 14:07:17;;;;;;;0.25;0.22;;;;;;;23.01;63.39;99443.44;4564292;28;20035;-69
2023/07/27 14:09:29;;;;;;;0.20;0.20;;;;;;;22.98;63.14;99432.78;4547062;28;20033;-68
2023/07/27 14:11:39;;;;;;;0.22;0.22;;;;;;;23.00;63.11;99433.19;4532859;28;20041;-69
2023/07/27 14:13:50;;;;;;;0.20;0.20;;;;;;;23.00;63.46;99436.06;4545364;28;20033;-69
2023/07/27 14:16:00;;;;;;;0.20;0.20;;;;;;;22.99;63.01;99428.69;4544731;28;20692;-69
2023/07/27 14:18:11;;;;;;;0.10;0.10;;;;;;;23.00;63.29;99436.06;4553785;28;20041;-69
2023/07/27 14:20:21;;;;;;;0.20;0.20;;;;;;;23.01;63.89;99434.81;4546542;28;20539;-70
2023/07/27 14:22:35;;;;;;;0.20;0.20;;;;;;;23.00;63.65;99434.03;4545580;28;20040;-68
2023/07/27 14:24:45;;;;;;;0.20;0.20;;;;;;;23.03;63.86;99435.25;4564432;28;20123;-69
2023/07/27 14:26:56;;;;;;;0.20;0.20;;;;;;;22.99;64.15;99429.47;4545669;28;20037;-69
2023/07/27 14:29:06;;;;;;;0.47;0.13;;;;;;;22.99;64.27;99434.44;4563246;28;20094;-69
2023/07/27 14:31:18;;;;;;;0.20;0.20;;;;;;;23.02;63.62;99427.84;4554112;28;20031;-69
2023/07/27 14:33:28;;;;;;;0.20;0.20;;;;;;;23.03;63.75;99435.25;4546505;28;20228;-69
2023/07/27 14:35:39;;;;;;;0.30;0.20;;;;;;;23.02;63.47;99433.59;4545427;28;20047;-68
2023/07/27 14:37:49;;;;;;;0.40;0.20;;;;;;;23.00;63.99;99428.25;4566574;28;20033;-70
2023/07/27 14:40:00;;;;;;;0.30;0.30;;;;;;;23.03;64.06;99429.47;4553178;28;20322;-72
2023/07/27 14:42:11;;;;;;;0.30;0.30;;;;;;;23.03;64.20;99430.31;4532323;28;20049;-68
2023/07/27 14:44:21;;;;;;;0.20;0.20;;;;;;;23.05;64.21;99432.78;4554011;28;20031;-68
2023/07/27 14:46:32;;;;;;;0.20;0.20;;;;;;;23.07;64.02;99436.06;4549069;28;20033;-68
2023/07/27 14:48:43;;;;;;;0.43;0.30;;;;;;;23.08;64.11;99431.94;4561769;28;20042;-68
2023/07/27 14:50:53;;;;;;;0.17;0.17;;;;;;;23.06;64.11;99429.50;4561641;28;20620;-67
2023/07/27 14:53:04;;;;;;;0.30;0.30;;;;;;;23.06;64.52;99420.03;4553088;28;20589;-69
2023/07/27 14:55:14;;;;;;;0.20;0.20;;;;;;;23.06;64.66;99426.59;4563652;28;20092;-67
2023/07/27 14:57:25;;;;;;;0.20;0.20;;;;;;;23.06;64.69;99417.16;4542389;28;20021;-67
2023/07/27 14:59:35;;;;;;;0.10;0.10;;;;;;;23.07;64.34;99424.56;4545605;28;20039;-67
2023/07/27 15:01:46;;;;;;;0.20;0.20;;;;;;;23.08;64.30;99426.19;4547899;28;20068;-68
2023/07/27 15:03:56;;;;;;;0.30;0.30;;;;;;;23.10;64.00;99424.53;4560888;28;20110;-67
2023/07/27 15:06:07;;;;;;;0.30;0.30;;;;;;;23.07;64.62;99415.94;4561549;28;21209;-68
2023/07/27 15:08:17;;;;;;;0.45;0.40;;;;;;;23.09;64.31;99422.91;4543448;28;20044;-68
2023/07/27 15:10:27;;;;;;;0.50;0.30;;;;;;;22.98;64.36;99404.00;4545779;28;20032;-67
2023/07/27 15:12:38;;;;;;;0.30;0.30;;;;;;;23.11;63.88;99431.97;4562000;28;20024;-68
2023/07/27 15:14:48;;;;;;;0.20;0.20;;;;;;;23.11;63.82;99428.25;4560641;28;20037;-68
2023/07/27 15:16:59;;;;;;;0.20;0.20;;;;;;;23.08;63.69;99429.06;4518183;28;20937;-67
2023/07/27 15:19:10;;;;;;;0.20;0.20;;;;;;;23.11;63.57;99434.00;4514316;28;20351;-69
2023/07/27 15:21:21;;;;;;;0.20;0.20;;;;;;;23.01;63.39;99414.69;4510664;28;20129;-70
2023/07/27 15:23:32;;;;;;;0.20;0.10;;;;;;;23.12;63.21;99429.91;4508711;28;20053;-67
2023/07/27 15:25:43;;;;;;;0.20;0.20;;;;;;;23.08;63.30;99423.31;4527901;28;20047;-69
2023/07/27 15:27:53;;;;;;;0.20;0.20;;;;;;;23.12;63.25;99427.84;4525292;28;20044;-68
2023/07/27 15:30:05;;;;;;;0.13;0.13;;;;;;;23.11;62.99;99425.38;4505516;28;20046;-66
2023/07/27 15:32:15;;;;;;;0.10;0.10;;;;;;;23.14;63.17;99430.28;4485977;28;20034;-67
2023/07/27 15:34:25;;;;;;;0.10;0.10;;;;;;;23.11;62.69;99431.13;4515380;28;20034;-67
2023/07/27 15:36:36;;;;;;;0.20;0.20;;;;;;;23.11;63.16;99429.06;4522885;28;20037;-69
2023/07/27 15:38:46;;;;;;;0.13;0.10;;;;;;;23.15;62.82;99432.75;4538972;28;20094;-67
2023/07/27 15:40:58;;;;;;;0.10;0.10;;;;;;;23.12;62.81;99421.28;4503975;28;20052;-68
2023/07/27 15:43:08;;;;;;;0.13;0.13;;;;;;;23.12;62.88;99415.53;4495223;28;20109;-69
2023/07/27 15:45:19;;;;;;;0.25;0.20;;;;;;;23.15;63.06;99423.31;4484736;28;20038;-69
2023/07/27 15:47:29;;;;;;;0.10;0.10;;;;;;;23.13;63.15;99422.91;4508211;28;20040;-68
2023/07/27 15:49:39;;;;;;;0.10;0.10;;;;;;;23.13;62.56;99417.16;4490931;28;20038;-68
2023/07/27 15:51:50;;;;;;;0.20;0.20;;;;;;;23.15;63.08;99431.97;4497736;28;20030;-69
2023/07/27 15:54:00;;;;;;;0.10;0.10;;;;;;;23.13;62.96;99422.91;4498558;28;20046;-68
2023/07/27 15:56:11;;;;;;;0.10;0.10;;;;;;;23.14;62.86;99424.53;4508520;28;20034;-69
2023/07/27 15:58:21;;;;;;;0.10;0.10;;;;;;;23.14;62.48;99421.66;4495879;28;20180;-69
2023/07/27 16:00:32;;;;;;;0.20;0.20;;;;;;;23.15;63.03;99423.31;4478572;28;20042;-68
2023/07/27 16:02:43;;;;;;;0.10;0.10;;;;;;;23.16;63.04;99419.19;4489101;28;20046;-68
2023/07/27 16:04:55;;;;;;;0.20;0.20;;;;;;;23.16;63.23;99436.47;4475887;28;20043;-69
2023/07/27 16:07:06;;;;;;;0.20;0.20;;;;;;;23.14;63.16;99415.91;4493646;28;20149;-68
2023/07/27 16:09:19;;;;;;;0.30;0.30;;;;;;;23.16;63.42;99422.91;4485942;28;20122;-67
2023/07/27 16:11:29;;;;;;;0.38;0.20;;;;;;;23.15;62.92;99415.50;4482992;28;20050;-68
2023/07/27 16:13:39;;;;;;;0.30;0.30;;;;;;;23.17;63.13;99415.91;4479680;28;20061;-67
2023/07/27 16:15:50;;;;;;;0.30;0.30;;;;;;;23.19;63.26;99421.25;4489145;28;20058;-67
2023/07/27 16:18:00;;;;;;;0.20;0.20;;;;;;;23.19;62.96;99424.97;4493082;28;20741;-68
2023/07/27 16:20:11;;;;;;;0.30;0.30;;;;;;;23.18;63.33;99417.53;4471127;28;20135;-68
2023/07/27 16:22:22;;;;;;;0.30;0.22;;;;;;;23.18;63.44;99423.28;4490511;28;20563;-69
2023/07/27 16:24:33;;;;;;;0.20;0.20;;;;;;;23.18;63.55;99416.75;4455522;28;20140;-69
2023/07/27 16:26:43;;;;;;;0.30;0.30;;;;;;;23.16;63.51;99410.56;4497037;28;20051;-68
2023/07/27 16:28:54;;;;;;;0.30;0.30;;;;;;;23.18;63.28;99420.41;4484224;28;20781;-67
2023/07/27 16:31:07;;;;;;;0.30;0.30;;;;;;;23.19;63.04;99422.09;4500778;28;20038;-68
2023/07/27 16:33:18;;;;;;;0.35;0.35;;;;;;;23.19;63.11;99415.50;4500944;28;20056;-68
2023/07/27 16:35:30;;;;;;;0.20;0.20;;;;;;;23.17;63.50;99415.06;4507800;28;20515;-69
2023/07/27 16:37:40;;;;;;;0.30;0.20;;;;;;;23.22;63.32;99426.19;4492738;28;20053;-68
2023/07/27 16:39:52;;;;;;;0.30;0.15;;;;;;;23.23;63.51;99422.09;4494142;28;20133;-68
2023/07/27 16:42:02;;;;;;;0.30;0.30;;;;;;;23.19;62.93;99416.31;4500826;28;20300;-67
2023/07/27 16:44:13;;;;;;;0.15;0.15;;;;;;;23.20;63.14;99412.19;4507509;28;20040;-68
2023/07/27 16:46:23;;;;;;;0.10;0.10;;;;;;;23.21;63.09;99421.66;4494313;28;20096;-68
2023/07/27 16:48:34;;;;;;;0.20;0.10;;;;;;;23.20;63.29;99417.13;4508931;28;20030;-69
2023/07/27 16:50:44;;;;;;;0.15;0.15;;;;;;;23.21;63.31;99421.66;4506667;28;20111;-67
2023/07/27 16:52:55;;;;;;;0.20;0.10;;;;;;;23.20;63.34;99422.88;4490592;28;20042;-69
2023/07/27 16:55:06;;;;;;;0.10;0.10;;;;;;;23.22;63.19;99424.13;4509716;28;20026;-68
2023/07/27 16:57:16;;;;;;;0.10;0.10;;;;;;;23.20;63.22;99425.75;4507986;28;20040;-68
2023/07/27 16:59:27;;;;;;;0.77;0.10;;;;;;;23.22;63.12;99431.94;4500650;28;20022;-68
2023/07/27 17:01:39;;;;;;;0.20;0.20;;;;;;;23.19;63.17;99432.75;4508757;28;20034;-68
2023/07/27 17:03:50;;;;;;;0.10;0.10;;;;;;;23.20;63.22;99432.34;4506099;28;20038;-68
2023/07/27 17:06:00;;;;;;;0.38;0.20;;;;;;;23.16;63.34;99425.78;4491894;28;20038;-68
2023/07/27 17:08:11;;;;;;;0.10;0.10;;;;;;;23.23;62.87;99445.13;4494374;28;20162;-67
2023/07/27 17:10:21;;;;;;;0.20;0.20;;;;;;;23.22;63.08;99435.66;4507884;28;20124;-68
2023/07/27 17:12:32;;;;;;;0.10;0.10;;;;;;;23.18;62.84;99439.78;4501413;28;20070;-68
2023/07/27 17:14:42;;;;;;;0.10;0.10;;;;;;;23.18;62.71;99434.81;4505391;28;20056;-67
2023/07/27 17:16:53;;;;;;;0.28;0.10;;;;;;;23.21;63.12;99441.81;4506048;28;20132;-68
2023/07/27 17:19:03;;;;;;;0.10;0.10;;;;;;;23.18;62.90;99431.94;4507741;28;20586;-67
2023/07/27 17:21:14;;;;;;;0.40;0.10;;;;;;;23.18;62.86;99425.38;4498145;28;20026;-67
2023/07/27 17:23:25;;;;;;;0.20;0.13;;;;;;;23.19;62.90;99427.84;4493434;28;20077;-69
2023/07/27 17:25:35;;;;;;;0.73;0.10;;;;;;;23.19;63.06;99432.75;4508520;28;20038;-68
2023/07/27 17:28:41;;;;;;;0.10;0.10;;;;;;;23.22;63.32;99437.69;4508901;28;20619;-66
2023/07/27 17:31:38;;;;;;;0.10;0.10;;;;;;;23.21;63.42;99428.22;4492672;28;21539;-68
2023/07/27 17:33:49;;;;;;;0.10;0.10;;;;;;;23.18;63.44;99425.38;4494804;28;20097;-71
2023/07/27 17:36:02;;;;;;;0.95;0.10;;;;;;;23.22;63.22;99440.56;4486766;28;20061;-70
2023/07/27 17:38:13;;;;;;;0.55;0.10;;;;;;;23.17;62.96;99432.34;4479078;28;21020;-70
2023/07/27 17:40:24;;;;;;;0.10;0.10;;;;;;;23.22;63.36;99443.44;4484374;28;20093;-71
2023/07/27 17:42:35;;;;;;;0.10;0.10;;;;;;;23.18;63.25;99431.13;4462130;28;20145;-70
2023/07/27 17:44:45;;;;;;;0.05;0.05;;;;;;;23.08;63.11;99417.56;4509888;28;20029;-70
2023/07/27 17:46:56;;;;;;;0.10;0.10;;;;;;;23.21;63.15;99436.88;4464032;28;20145;-69
2023/07/27 17:49:07;;;;;;;0.15;0.08;;;;;;;23.21;62.98;99441.81;4494359;28;20077;-69
2023/07/27 17:51:17;;;;;;;0.00;0.00;;;;;;;23.19;63.08;99427.00;4469965;28;20045;-69
2023/07/27 17:53:29;;;;;;;0.13;0.10;;;;;;;23.16;63.06;99427.84;4496364;28;20140;-69
2023/07/27 17:55:40;;;;;;;0.10;0.10;;;;;;;23.16;63.16;99428.66;4488074;28;20034;-68
2023/07/27 17:57:51;;;;;;;0.08;0.08;;;;;;;23.19;62.79;99435.66;4490399;28;20037;-69
2023/07/27 18:00:01;;;;;;;0.10;0.10;;;;;;;23.21;62.85;99436.88;4498435;28;20062;-69
2023/07/27 18:02:23;;;;;;;0.10;0.10;;;;;;;23.21;62.77;99441.81;4504852;28;20033;-69
2023/07/27 18:04:33;;;;;;;0.85;0.17;;;;;;;23.18;62.54;99437.69;4507456;28;20965;-67
2023/07/27 18:06:44;;;;;;;0.20;0.10;;;;;;;23.18;62.36;99442.66;4505227;28;21020;-68
2023/07/27 18:08:54;;;;;;;0.20;0.20;;;;;;;23.19;62.28;99441.41;4505767;28;20034;-69
2023/07/27 18:11:10;;;;;;;0.20;0.10;;;;;;;23.19;61.97;99441.41;4497155;28;20048;-68
2023/07/27 18:13:20;;;;;;;0.10;0.10;;;;;;;23.21;61.93;99453.34;4506900;28;20609;-68
2023/07/27 18:15:42;;;;;;;0.30;0.10;;;;;;;23.23;61.98;99456.63;4482624;28;20832;-69
2023/07/27 18:17:53;;;;;;;0.10;0.10;;;;;;;23.19;61.87;99445.13;4507653;28;21100;-68
2023/07/27 18:20:04;;;;;;;0.10;0.10;;;;;;;23.22;61.94;99449.22;4499466;28;20161;-68
2023/07/27 18:22:14;;;;;;;0.15;0.10;;;;;;;23.17;61.67;99438.94;4492573;28;20125;-68
2023/07/27 18:24:25;;;;;;;0.52;0.15;;;;;;;23.23;61.35;99445.13;4498248;28;20042;-68
2023/07/27 18:26:35;;;;;;;0.10;0.10;;;;;;;23.19;61.56;99441.41;4493620;28;20042;-68
2023/07/27 18:28:47;;;;;;;0.20;0.20;;;;;;;23.25;61.60;99466.53;4505751;28;20037;-67
2023/07/27 18:31:04;;;;;;;0.25;0.20;;;;;;;23.23;61.53;99468.16;4506006;28;20041;-67
2023/07/27 18:33:15;;;;;;;0.28;0.28;;;;;;;23.22;61.47;99461.56;4504956;28;20610;-68
2023/07/27 18:35:26;;;;;;;0.20;0.20;;;;;;;23.22;61.37;99455.81;4492054;28;20671;-67
2023/07/27 18:37:37;;;;;;;0.20;0.20;;;;;;;23.25;61.22;99465.66;4483789;28;20919;-67
2023/07/27 18:39:47;;;;;;;0.10;0.10;;;;;;;23.25;60.96;99459.91;4489849;28;20143;-67
2023/07/27 18:41:58;;;;;;;0.10;0.10;;;;;;;23.26;61.32;99461.59;4492858;28;20822;-68
2023/07/27 18:44:08;;;;;;;0.10;0.10;;;;;;;23.26;61.23;99452.97;4499271;28;20048;-68
2023/07/27 18:46:22;;;;;;;0.32;0.10;;;;;;;23.27;61.23;99457.47;4475250;28;20537;-68
2023/07/27 18:48:32;;;;;;;0.10;0.10;;;;;;;23.23;60.85;99454.56;4432407;28;20228;-68
2023/07/27 18:50:44;;;;;;;0.13;0.10;;;;;;;23.27;60.64;99461.19;4489749;28;20080;-69
2023/07/27 18:52:54;;;;;;;0.20;0.10;;;;;;;23.25;60.82;99454.13;4473912;28;20058;-68
2023/07/27 18:55:05;;;;;;;0.10;0.10;;;;;;;23.26;60.54;99455.84;4469512;28;20053;-69
2023/07/27 18:57:16;;;;;;;0.10;0.10;;;;;;;23.26;60.41;99450.06;4487634;28;20041;-68
2023/07/27 18:59:26;;;;;;;0.20;0.20;;;;;;;23.25;60.45;99448.38;4469792;28;20037;-68
2023/07/27 19:01:37;;;;;;;0.20;0.20;;;;;;;23.27;60.40;99455.41;4471821;28;20058;-68
2023/07/27 19:03:47;;;;;;;0.40;0.32;;;;;;;23.26;60.58;99455.84;4478920;28;20061;-67
2023/07/27 19:05:58;;;;;;;0.20;0.20;;;;;;;23.25;60.55;99448.38;4506410;28;20920;-67
2023/07/27 19:08:09;;;;;;;0.20;0.20;;;;;;;23.26;60.09;99453.75;4503180;28;20100;-67
2023/07/27 19:10:19;;;;;;;0.30;0.20;;;;;;;23.28;59.99;99447.59;4500273;28;20130;-66
2023/07/27 19:12:30;;;;;;;0.55;0.30;;;;;;;23.27;60.17;99457.47;4496546;28;20057;-67
2023/07/27 19:14:40;;;;;;;0.25;0.22;;;;;;;23.25;60.03;99454.13;4502003;28;20088;-68
2023/07/27 19:16:51;;;;;;;0.55;0.30;;;;;;;23.26;60.21;99462.41;4480635;28;20029;-67
2023/07/27 19:19:01;;;;;;;0.28;0.28;;;;;;;23.28;60.19;99464.84;4510291;28;20029;-67
2023/07/27 19:21:14;;;;;;;0.25;0.22;;;;;;;23.28;59.84;99462.81;4501614;28;20064;-66
2023/07/27 19:23:25;;;;;;;0.40;0.20;;;;;;;23.30;60.16;99465.28;4503433;28;20126;-67
2023/07/27 19:25:43;;;;;;;0.20;0.20;;;;;;;23.26;60.30;99462.41;4510936;28;20030;-68
2023/07/27 19:27:53;;;;;;;0.17;0.13;;;;;;;23.28;60.35;99468.56;4494929;28;20030;-68
2023/07/27 19:30:05;;;;;;;0.10;0.10;;;;;;;23.31;60.07;99469.78;4501730;28;20034;-67
2023/07/27 19:32:15;;;;;;;0.20;0.10;;;;;;;23.29;60.00;99466.53;4510307;28;20042;-67
2023/07/27 19:34:26;;;;;;;0.20;0.20;;;;;;;23.29;60.08;99464.44;4512351;28;20512;-68
2023/07/27 19:36:36;;;;;;;0.22;0.20;;;;;;;23.31;59.87;99473.50;4480406;28;20066;-67
2023/07/27 19:38:47;;;;;;;0.10;0.10;;;;;;;23.32;60.11;99475.16;4497797;28;20120;-67
2023/07/27 19:40:58;;;;;;;0.30;0.10;;;;;;;23.29;59.93;99478.03;4516659;28;20941;-68
2023/07/27 19:43:08;;;;;;;0.20;0.10;;;;;;;23.30;60.18;99485.44;4528803;28;20460;-65
2023/07/27 19:45:19;;;;;;;0.40;0.10;;;;;;;23.30;60.02;99474.75;4523116;28;20042;-68
2023/07/27 19:47:29;;;;;;;0.10;0.10;;;;;;;23.33;60.03;99487.47;4532605;28;20084;-67
2023/07/27 19:49:40;;;;;;;0.10;0.10;;;;;;;23.32;60.13;99488.72;4501502;28;20049;-67
2023/07/27 19:51:52;;;;;;;0.10;0.10;;;;;;;23.34;60.26;99489.16;4535178;28;20037;-68
2023/07/27 19:54:02;;;;;;;0.68;0.20;;;;;;;23.32;60.06;99482.97;4502786;28;21286;-68
2023/07/27 20:01:00;;;;;;;0.10;0.10;;;;;;;23.32;60.50;99488.72;4523384;28;20182;-68
2023/07/27 20:03:10;;;;;;;0.17;0.17;;;;;;;23.30;60.54;99477.63;4524859;28;20037;-67
2023/07/27 20:05:20;;;;;;;0.40;0.20;;;;;;;23.33;60.50;99484.59;4515590;28;20140;-68
2023/07/27 20:07:31;;;;;;;0.25;0.15;;;;;;;23.31;60.42;99481.31;4516714;28;20135;-68
2023/07/27 20:09:41;;;;;;;0.10;0.10;;;;;;;23.34;60.22;99492.03;4515582;28;20117;-68
2023/07/27 20:11:51;;;;;;;0.10;0.10;;;;;;;23.32;60.39;99494.47;4515828;28;20026;-68
2023/07/27 20:14:02;;;;;;;0.25;0.20;;;;;;;23.33;60.14;99490.38;4515055;28;20046;-68
2023/07/27 20:16:13;;;;;;;0.30;0.30;;;;;;;23.29;60.15;99472.28;4515730;28;20069;-68
2023/07/27 20:18:24;;;;;;;0.20;0.20;;;;;;;23.27;60.32;99472.69;4517839;28;21284;-68
2023/07/27 20:20:36;;;;;;;0.10;0.10;;;;;;;23.32;60.29;99480.09;4516810;28;20037;-68
2023/07/27 20:22:47;;;;;;;0.15;0.15;;;;;;;23.18;59.97;99459.91;4515102;28;20037;-67
2023/07/27 20:24:57;;;;;;;0.20;0.20;;;;;;;23.30;60.16;99488.31;4516568;28;20045;-68
2023/07/27 20:27:08;;;;;;;0.20;0.20;;;;;;;23.30;59.91;99491.19;4516528;28;20371;-68
2023/07/27 20:29:21;;;;;;;0.30;0.30;;;;;;;23.26;60.07;99478.88;4516938;28;20519;-67
2023/07/27 20:31:31;;;;;;;0.20;0.20;;;;;;;23.25;59.86;99482.94;4516238;28;20156;-68
2023/07/27 20:33:42;;;;;;;0.28;0.20;;;;;;;23.29;59.67;99478.84;4517236;28;20763;-68
2023/07/27 20:36:39;;;;;;;0.10;0.10;;;;;;;23.31;59.66;99481.31;4513665;28;20041;-68
2023/07/27 20:39:22;;;;;;;0.35;0.20;;;;;;;23.30;59.68;99473.91;4514656;28;20069;-68
2023/07/27 20:41:39;;;;;;;0.20;0.20;;;;;;;23.26;59.69;99476.78;4514679;28;20283;-68
2023/07/27 20:43:50;;;;;;;0.10;0.10;;;;;;;23.27;59.47;99481.34;4515036;28;20746;-68
2023/07/27 20:46:38;;;;;;;0.20;0.20;;;;;;;23.30;59.53;99482.56;4529174;28;21710;-68
2023/07/27 20:48:49;;;;;;;0.95;0.20;;;;;;;23.29;59.96;99489.56;4516909;28;20610;-68
2023/07/27 20:51:40;;;;;;;0.57;0.20;;;;;;;23.27;59.78;99492.84;4517843;28;20028;-68
2023/07/27 20:53:50;;;;;;;0.10;0.10;;;;;;;23.26;59.97;99484.63;4516224;28;20049;-68
2023/07/27 20:56:40;;;;;;;0.10;0.10;;;;;;;23.26;60.05;99493.25;4515943;28;20292;-69
2023/07/27 20:58:50;;;;;;;0.20;0.10;;;;;;;23.27;60.33;99497.78;4515438;28;20042;-69
2023/07/27 21:01:01;;;;;;;0.10;0.10;;;;;;;23.27;60.37;99483.38;4515333;28;20092;-69
2023/07/27 21:03:40;;;;;;;0.13;0.10;;;;;;;23.27;60.63;99481.34;4516173;28;20040;-69
2023/07/27 21:05:50;;;;;;;0.38;0.10;;;;;;;23.22;60.54;99469.38;4515861;28;20087;-69
2023/07/27 21:08:01;;;;;;;0.32;0.10;;;;;;;23.26;60.45;99478.88;4514372;28;20044;-68
2023/07/27 21:10:11;;;;;;;0.20;0.10;;;;;;;23.21;60.63;99476.38;4517643;28;20034;-69
2023/07/27 21:12:40;;;;;;;0.13;0.10;;;;;;;23.25;60.67;99488.69;4517414;28;20123;-69
2023/07/27 21:14:51;;;;;;;0.10;0.10;;;;;;;23.24;60.64;99484.16;4514416;28;20132;-69
2023/07/27 21:17:01;;;;;;;0.17;0.17;;;;;;;23.22;60.53;99481.72;4515616;28;20042;-68
2023/07/27 21:19:12;;;;;;;0.28;0.28;;;;;;;23.25;60.60;99494.44;4514968;28;20078;-68
2023/07/27 21:21:23;;;;;;;0.75;0.30;;;;;;;23.24;60.71;99492.81;4515098;28;20041;-68
2023/07/27 21:23:33;;;;;;;0.40;0.40;;;;;;;23.25;60.61;99494.44;4517113;28;20029;-69
2023/07/27 21:25:44;;;;;;;0.50;0.30;;;;;;;23.25;60.69;99500.19;4516353;28;20475;-69
2023/07/27 21:27:54;;;;;;;0.38;0.35;;;;;;;23.21;60.46;99487.88;4514522;28;20433;-69
2023/07/27 21:30:05;;;;;;;0.40;0.35;;;;;;;23.22;60.40;99495.28;4512405;28;20075;-69
2023/07/27 21:32:16;;;;;;;0.35;0.35;;;;;;;23.19;60.58;99490.34;4514810;28;20557;-69
2023/07/27 21:34:27;;;;;;;0.52;0.50;;;;;;;23.10;60.34;99475.53;4513547;28;20580;-69
2023/07/27 21:36:38;;;;;;;0.30;0.30;;;;;;;23.19;60.83;99487.47;4513227;28;20069;-69
2023/07/27 21:38:48;;;;;;;0.40;0.40;;;;;;;23.23;60.50;99491.19;4514810;28;20117;-69
2023/07/27 21:40:58;;;;;;;0.40;0.40;;;;;;;23.19;60.56;99484.59;4514683;28;20120;-69